createdAt,value
2023-04-20T06:20:59.944Z,100.00
2023-04-20T06:30:59.892Z,100.00
2023-04-20T06:40:59.951Z,100.00
2023-04-20T06:50:59.812Z,100.00
2023-04-20T07:00:59.883Z,100.00
2023-04-20T07:10:59.882Z,100.00
2023-04-20T07:20:59.869Z,100.00
2023-04-20T07:31:00.095Z,100.00
2023-04-20T07:40:59.937Z,100.00
2023-04-20T07:50:59.939Z,100.00
2023-04-20T08:00:59.899Z,100.00
2023-04-20T08:11:00.031Z,100.00
2023-04-20T08:20:59.986Z,100.00
2023-04-20T08:31:00.002Z,100.00
2023-04-20T08:41:00.066Z,100.00
2023-04-20T08:51:00.297Z,100.00
2023-04-20T09:01:00.297Z,100.00
2023-04-20T09:11:00.129Z,100.00
2023-04-20T09:21:00.293Z,98.53
2023-04-20T09:31:00.280Z,97.15
2023-04-20T09:41:00.222Z,91.16
2023-04-20T09:51:00.187Z,87.18
2023-04-20T10:01:00.190Z,87.06
2023-04-20T10:11:00.178Z,82.06
2023-04-20T10:21:00.125Z,82.72
2023-04-20T10:31:00.274Z,80.75
2023-04-20T10:41:00.288Z,79.36
2023-04-20T10:51:00.347Z,79.39
2023-04-20T11:01:00.247Z,78.75
2023-04-20T11:11:00.383Z,74.72
2023-04-20T11:21:00.227Z,76.31
2023-04-20T11:31:00.419Z,76.90
2023-04-20T11:41:00.078Z,75.05
2023-04-20T11:51:00.231Z,72.66
2023-04-20T12:01:00.228Z,71.41
2023-04-20T12:11:00.207Z,70.74
2023-04-20T12:21:00.220Z,71.80
2023-04-20T12:31:01.489Z,67.61
2023-04-20T12:41:00.326Z,69.68
2023-04-20T12:51:00.438Z,68.27
2023-04-20T13:01:00.303Z,69.98
2023-04-20T13:11:00.353Z,70.51
2023-04-20T13:21:00.314Z,71.86
2023-04-20T13:31:00.290Z,75.74
2023-04-20T13:41:00.348Z,80.78
2023-04-20T13:51:00.430Z,82.44
2023-04-20T14:01:00.439Z,85.01
2023-04-20T14:11:00.424Z,85.70
2023-04-20T14:21:00.465Z,88.15
2023-04-20T14:31:00.696Z,100.00
2023-04-20T14:41:00.588Z,100.00
2023-04-20T14:51:00.779Z,100.00
2023-04-20T15:01:00.786Z,100.00
2023-04-20T15:11:00.595Z,100.00
2023-04-20T15:21:00.668Z,100.00
2023-04-20T15:31:00.604Z,100.00
2023-04-20T15:41:00.842Z,100.00
2023-04-20T15:51:00.617Z,100.00
2023-04-20T16:01:00.713Z,100.00
2023-04-20T16:11:00.596Z,100.00
2023-04-20T16:21:00.858Z,100.00
2023-04-20T16:31:01.014Z,100.00
2023-04-20T16:41:00.810Z,100.00
2023-04-20T16:51:00.962Z,100.00
2023-04-20T17:01:00.923Z,100.00
2023-04-20T17:11:00.834Z,100.00
2023-04-20T17:21:00.940Z,100.00
2023-04-20T17:31:00.760Z,100.00
2023-04-20T17:41:00.753Z,100.00
2023-04-20T17:51:01.206Z,100.00
2023-04-20T18:01:01.002Z,100.00
2023-04-20T18:11:00.888Z,100.00
2023-04-20T18:21:00.940Z,100.00
2023-04-20T18:31:01.029Z,100.00
2023-04-20T18:41:00.994Z,100.00
2023-04-20T18:51:00.938Z,100.00
2023-04-20T19:01:01.017Z,100.00
2023-04-20T19:11:00.898Z,100.00
2023-04-20T19:21:01.057Z,100.00
